createdAt,value
2019-02-15T00:01:43.334Z,17.43
2019-02-15T00:04:10.191Z,12.50
2019-02-15T00:06:36.518Z,12.70
2019-02-15T00:09:04.726Z,14.57
2019-02-15T00:11:33.313Z,19.70
2019-02-15T00:13:59.902Z,14.37
2019-02-15T00:16:26.233Z,16.93
2019-02-15T00:18:54.480Z,10.70
2019-02-15T00:21:22.730Z,17.60
2019-02-15T00:23:49.524Z,13.10
2019-02-15T00:26:16.673Z,17.93
2019-02-15T00:28:43.546Z,11.33
2019-02-15T00:31:12.063Z,11.23
2019-02-15T00:33:38.658Z,11.60
2019-02-15T00:36:05.231Z,9.97
2019-02-15T00:38:31.806Z,11.50
2019-02-15T00:40:58.113Z,11.47
2019-02-15T00:43:24.728Z,15.20
2019-02-15T00:45:53.220Z,11.90
2019-02-15T00:48:21.689Z,13.33
2019-02-15T00:51:01.983Z,16.37
2019-02-15T00:53:36.575Z,9.50
2019-02-15T00:56:07.858Z,11.50
2019-02-15T00:58:51.971Z,15.17
2019-02-15T01:01:36.815Z,17.30
2019-02-15T01:04:05.265Z,18.33
2019-02-15T01:06:48.789Z,15.17
2019-02-15T01:09:17.038Z,15.20
2019-02-15T01:11:48.232Z,14.60
2019-02-15T01:14:14.570Z,10.90
2019-02-15T01:16:40.943Z,15.90
2019-02-15T01:19:07.554Z,9.87
2019-02-15T01:21:33.889Z,15.57
2019-02-15T01:24:00.279Z,15.43
2019-02-15T01:26:31.430Z,14.93
2019-02-15T01:29:08.346Z,14.43
2019-02-15T01:31:36.568Z,12.63
2019-02-15T01:34:17.989Z,11.37
2019-02-15T01:36:46.486Z,11.57
2019-02-15T01:39:14.865Z,13.13
2019-02-15T01:41:55.408Z,12.50
2019-02-15T01:44:23.627Z,12.13
2019-02-15T01:46:52.094Z,12.37
2019-02-15T01:49:18.658Z,13.40
2019-02-15T01:51:45.265Z,11.90
2019-02-15T01:54:11.884Z,16.40
2019-02-15T01:56:38.465Z,14.20
2019-02-15T01:59:04.755Z,11.70
2019-02-15T02:01:31.087Z,15.00
2019-02-15T02:03:57.431Z,11.73
2019-02-15T02:06:23.778Z,15.57
2019-02-15T02:08:50.173Z,11.00
2019-02-15T02:11:16.481Z,12.03
2019-02-15T02:13:49.292Z,12.87
2019-02-15T02:16:11.052Z,12.23
2019-02-15T02:18:37.406Z,11.10
2019-02-15T02:21:03.989Z,15.43
2019-02-15T02:23:30.313Z,13.30
2019-02-15T02:25:56.635Z,15.53
2019-02-15T02:28:23.232Z,13.40
2019-02-15T02:30:49.585Z,10.20
2019-02-15T02:33:16.900Z,12.00
2019-02-15T02:35:43.477Z,9.90
2019-02-15T02:38:10.378Z,12.23
2019-02-15T02:40:36.751Z,11.03
2019-02-15T02:43:03.434Z,13.93
2019-02-15T02:45:30.092Z,14.03
2019-02-15T02:47:56.443Z,12.20
2019-02-15T02:50:22.756Z,13.13
2019-02-15T02:52:49.294Z,17.17
2019-02-15T02:55:15.983Z,10.47
2019-02-15T02:57:42.319Z,23.17
2019-02-15T03:00:09.093Z,20.50
2019-02-15T03:02:37.014Z,14.40
2019-02-15T03:05:04.402Z,14.23
2019-02-15T03:07:30.937Z,11.50
2019-02-15T03:09:57.267Z,12.33
2019-02-15T03:12:23.919Z,12.87
2019-02-15T03:14:50.513Z,10.43
2019-02-15T03:17:16.840Z,13.00
2019-02-15T03:19:43.429Z,12.63
2019-02-15T03:22:09.779Z,20.30
2019-02-15T03:24:36.387Z,13.13
2019-02-15T03:27:03.000Z,14.33
2019-02-15T03:29:29.348Z,12.20
2019-02-15T03:31:55.659Z,12.73
2019-02-15T03:34:22.025Z,13.47
2019-02-15T03:36:51.026Z,13.73
2019-02-15T03:39:31.376Z,12.20
2019-02-15T03:41:58.074Z,15.03
2019-02-15T03:44:24.456Z,11.57
2019-02-15T03:46:50.838Z,15.03
2019-02-15T03:49:17.126Z,14.03
2019-02-15T03:51:44.151Z,14.07
2019-02-15T03:54:11.821Z,10.13
2019-02-15T03:56:38.923Z,10.57
2019-02-15T03:59:06.062Z,16.00
2019-02-15T04:01:33.377Z,11.63
2019-02-15T04:03:59.785Z,12.90
2019-02-15T04:06:26.124Z,17.50
2019-02-15T04:08:52.495Z,20.87
2019-02-15T04:11:18.934Z,17.40
2019-02-15T04:13:45.490Z,15.33
2019-02-15T04:16:11.798Z,11.97
2019-02-15T04:18:38.549Z,9.27
2019-02-15T04:21:04.882Z,18.10
2019-02-15T04:23:31.270Z,15.13
2019-02-15T04:25:57.880Z,11.53
2019-02-15T04:28:25.305Z,14.10
2019-02-15T04:30:51.673Z,12.30
2019-02-15T04:33:18.170Z,14.90
2019-02-15T04:35:44.516Z,14.20
2019-02-15T04:38:10.909Z,10.70
2019-02-15T04:40:37.254Z,17.30
2019-02-15T04:43:03.568Z,13.50
2019-02-15T04:45:30.190Z,14.00
2019-02-15T04:47:56.812Z,9.60
2019-02-15T04:50:23.174Z,12.80
2019-02-15T04:52:49.656Z,11.00
2019-02-15T04:55:16.152Z,14.60
2019-02-15T04:57:42.507Z,13.47
2019-02-15T05:00:09.151Z,12.00
2019-02-15T05:02:35.577Z,15.00
2019-02-15T05:05:02.034Z,13.27
2019-02-15T05:07:28.616Z,14.20
2019-02-15T05:09:55.193Z,12.90
2019-02-15T05:12:21.541Z,11.63
2019-02-15T05:14:53.134Z,12.03
2019-02-15T05:17:16.421Z,14.23
2019-02-15T05:19:43.057Z,12.83
2019-02-15T05:22:09.407Z,12.13
2019-02-15T05:24:39.995Z,11.13
2019-02-15T05:27:13.409Z,11.00
2019-02-15T05:29:39.779Z,8.90
2019-02-15T05:32:06.670Z,15.57
2019-02-15T05:34:32.999Z,11.63
2019-02-15T05:36:59.306Z,13.60
2019-02-15T05:39:25.774Z,11.30
2019-02-15T05:41:52.150Z,9.07
2019-02-15T05:44:18.491Z,11.23
2019-02-15T05:46:45.334Z,10.87
2019-02-15T05:49:11.657Z,16.20
2019-02-15T05:51:38.247Z,10.13
2019-02-15T05:54:04.563Z,11.93
2019-02-15T05:56:30.888Z,18.43
2019-02-15T05:58:57.260Z,13.40
2019-02-15T06:01:26.073Z,11.27
2019-02-15T06:03:52.694Z,11.53
2019-02-15T06:06:19.379Z,11.10
2019-02-15T06:08:45.722Z,10.77
2019-02-15T06:11:12.047Z,8.73
2019-02-15T06:13:38.422Z,12.23
2019-02-15T06:16:05.089Z,13.90
2019-02-15T06:18:31.725Z,10.23
2019-02-15T06:20:58.328Z,11.67
2019-02-15T06:23:24.720Z,20.60
2019-02-15T06:25:51.279Z,9.60
2019-02-15T06:28:17.620Z,9.00
2019-02-15T06:30:43.914Z,11.90
2019-02-15T06:33:10.246Z,13.40
2019-02-15T06:35:37.256Z,10.20
2019-02-15T06:38:03.554Z,13.53
2019-02-15T06:40:29.944Z,11.23
2019-02-15T06:42:56.520Z,11.90
2019-02-15T06:45:25.207Z,8.70
2019-02-15T06:47:51.132Z,9.67
2019-02-15T06:50:17.753Z,9.77
2019-02-15T06:52:44.099Z,10.40
2019-02-15T06:55:11.443Z,9.33
2019-02-15T06:57:37.771Z,12.27
2019-02-15T07:00:25.887Z,11.10
2019-02-15T07:02:54.350Z,12.87
2019-02-15T07:05:26.796Z,10.47
2019-02-15T07:07:53.116Z,15.23
2019-02-15T07:10:19.479Z,11.40
2019-02-15T07:12:46.101Z,11.10
2019-02-15T07:15:12.716Z,10.97
2019-02-15T07:17:42.141Z,15.67
2019-02-15T07:20:15.044Z,11.83
2019-02-15T07:22:41.545Z,15.83
2019-02-15T07:25:10.859Z,8.53
2019-02-15T07:27:37.875Z,11.83
2019-02-15T07:30:11.656Z,18.53
2019-02-15T07:32:38.154Z,11.03
2019-02-15T07:35:06.244Z,11.70
2019-02-15T07:37:33.277Z,9.07
2019-02-15T07:39:59.933Z,10.93
2019-02-15T07:42:26.356Z,9.77
2019-02-15T07:44:52.667Z,12.97
2019-02-15T07:47:19.307Z,7.43
2019-02-15T07:49:45.628Z,14.50
2019-02-15T07:52:12.232Z,12.30
2019-02-15T07:54:38.548Z,15.50
2019-02-15T07:57:05.302Z,21.63
2019-02-15T07:59:31.604Z,9.37
2019-02-15T08:02:01.891Z,10.90
2019-02-15T08:04:26.401Z,9.13
2019-02-15T08:06:52.740Z,10.53
2019-02-15T08:09:19.058Z,16.83
2019-02-15T08:11:45.592Z,11.57
2019-02-15T08:14:14.983Z,14.33
2019-02-15T08:16:41.647Z,9.43
2019-02-15T08:19:08.003Z,12.53
2019-02-15T08:21:35.408Z,8.70
2019-02-15T08:24:02.043Z,14.57
2019-02-15T08:26:28.611Z,6.37
2019-02-15T08:28:55.225Z,5.63
2019-02-15T08:31:21.785Z,8.17
2019-02-15T08:33:48.453Z,11.10
2019-02-15T08:36:15.033Z,8.80
2019-02-15T08:38:41.645Z,12.03
2019-02-15T08:41:07.973Z,6.20
2019-02-15T08:43:34.727Z,9.37
2019-02-15T08:46:03.307Z,6.93
2019-02-15T08:48:29.352Z,8.80
2019-02-15T08:50:55.927Z,9.80
2019-02-15T08:53:22.512Z,8.20
2019-02-15T08:55:48.817Z,11.50
2019-02-15T08:58:15.242Z,12.07
2019-02-15T09:00:41.903Z,7.53
2019-02-15T09:03:08.369Z,7.50
2019-02-15T09:05:34.782Z,7.93
2019-02-15T09:08:01.499Z,8.57
2019-02-15T09:10:27.798Z,4.90
2019-02-15T09:12:54.136Z,10.40
2019-02-15T09:15:22.797Z,8.67
2019-02-15T09:17:49.122Z,8.10
2019-02-15T09:20:15.719Z,6.50
2019-02-15T09:22:42.028Z,10.57
2019-02-15T09:25:09.823Z,9.20
2019-02-15T09:27:38.367Z,9.87
2019-02-15T09:30:10.315Z,7.37
2019-02-15T09:32:36.630Z,8.60
2019-02-15T09:35:06.342Z,7.80
2019-02-15T09:37:32.681Z,8.10
2019-02-15T09:39:59.089Z,9.40
2019-02-15T09:42:25.700Z,8.27
2019-02-15T09:44:53.333Z,17.53
2019-02-15T09:47:19.660Z,7.10
2019-02-15T09:49:46.787Z,10.07
2019-02-15T09:52:13.478Z,9.63
2019-02-15T09:54:39.824Z,10.83
2019-02-15T09:57:06.163Z,11.30
2019-02-15T09:59:33.188Z,10.87
2019-02-15T10:01:59.520Z,11.47
2019-02-15T10:04:26.188Z,11.70
2019-02-15T10:06:52.887Z,8.90
2019-02-15T10:09:19.295Z,13.07
2019-02-15T10:11:45.598Z,16.07
2019-02-15T10:14:12.242Z,10.40
2019-02-15T10:16:41.403Z,14.53
2019-02-15T10:19:07.788Z,9.33
2019-02-15T10:21:34.349Z,10.67
2019-02-15T10:24:00.671Z,15.97
2019-02-15T10:26:27.352Z,10.83
2019-02-15T10:28:53.770Z,14.90
2019-02-15T10:31:20.207Z,13.80
2019-02-15T10:33:46.500Z,14.13
2019-02-15T10:36:12.911Z,10.00
2019-02-15T10:38:39.560Z,9.93
2019-02-15T10:41:06.222Z,10.23
2019-02-15T10:43:32.850Z,10.13
2019-02-15T10:45:59.225Z,9.00
2019-02-15T10:48:25.687Z,10.50
2019-02-15T10:50:52.079Z,21.23
2019-02-15T10:53:20.593Z,9.43
2019-02-15T10:55:47.219Z,9.33
2019-02-15T10:58:13.549Z,14.53
2019-02-15T11:00:40.408Z,12.83
2019-02-15T11:03:07.140Z,14.87
2019-02-15T11:05:33.481Z,12.03
2019-02-15T11:07:59.790Z,12.93
2019-02-15T11:10:27.410Z,14.53
2019-02-15T11:12:53.728Z,17.10
2019-02-15T11:15:20.086Z,13.03
2019-02-15T11:17:46.394Z,12.47
2019-02-15T11:20:15.399Z,15.80
2019-02-15T11:22:41.798Z,9.73
2019-02-15T11:25:10.072Z,12.00
2019-02-15T11:27:36.504Z,10.20
2019-02-15T11:30:10.499Z,11.37
2019-02-15T11:32:36.820Z,14.07
2019-02-15T11:35:08.589Z,11.83
2019-02-15T11:37:35.172Z,16.40
2019-02-15T11:40:02.252Z,20.37
2019-02-15T11:42:28.845Z,12.83
2019-02-15T11:44:55.537Z,20.63
2019-02-15T11:47:22.198Z,16.07
2019-02-15T11:49:48.837Z,16.53
2019-02-15T11:52:15.243Z,13.00
2019-02-15T11:54:41.599Z,15.87
2019-02-15T11:57:08.359Z,16.87
2019-02-15T11:59:34.934Z,15.67
2019-02-15T12:02:06.037Z,20.43
2019-02-15T12:04:29.770Z,13.93
2019-02-15T12:06:56.173Z,16.03
2019-02-15T12:09:22.560Z,10.33
2019-02-15T12:11:48.858Z,15.97
2019-02-15T12:14:15.485Z,27.13
2019-02-15T12:16:42.158Z,10.73
2019-02-15T12:19:08.499Z,7.20
2019-02-15T12:21:34.836Z,13.33
2019-02-15T12:24:01.149Z,16.20
2019-02-15T12:26:27.477Z,7.50
2019-02-15T12:28:53.792Z,10.50
2019-02-15T12:31:20.171Z,7.63
2019-02-15T12:33:46.765Z,9.27
2019-02-15T12:36:13.082Z,8.23
2019-02-15T12:38:39.645Z,12.33
2019-02-15T12:41:06.004Z,6.60
2019-02-15T12:43:32.868Z,5.77
2019-02-15T12:45:59.385Z,10.13
2019-02-15T12:48:26.418Z,4.90
2019-02-15T12:50:52.772Z,4.50
2019-02-15T12:53:19.516Z,6.33
2019-02-15T12:55:45.819Z,17.07
2019-02-15T12:58:12.431Z,6.93
2019-02-15T13:00:38.796Z,5.30
2019-02-15T13:03:06.126Z,7.83
2019-02-15T13:05:32.454Z,9.80
2019-02-15T13:07:59.037Z,8.90
2019-02-15T13:10:27.278Z,7.50
2019-02-15T13:12:53.703Z,8.50
2019-02-15T13:15:20.317Z,8.20
2019-02-15T13:17:46.911Z,9.63
2019-02-15T13:20:13.544Z,3.10
2019-02-15T13:22:40.254Z,5.40
2019-02-15T13:25:07.340Z,3.00
2019-02-15T13:27:33.676Z,5.03
2019-02-15T13:30:00.379Z,4.10
2019-02-15T13:32:26.928Z,4.30
2019-02-15T13:34:53.671Z,2.87
2019-02-15T13:37:20.246Z,4.70
2019-02-15T13:39:46.624Z,2.10
2019-02-15T13:42:12.981Z,4.37
2019-02-15T13:44:39.883Z,6.03
2019-02-15T13:47:06.215Z,3.63
2019-02-15T13:49:32.670Z,4.83
2019-02-15T13:51:59.769Z,1.20
2019-02-15T13:54:26.459Z,1.47
2019-02-15T13:56:52.815Z,1.10
2019-02-15T13:59:19.145Z,1.17
2019-02-15T14:01:46.459Z,3.00
2019-02-15T14:04:12.805Z,2.03
2019-02-15T14:06:39.370Z,2.50
2019-02-15T14:09:05.733Z,1.50
2019-02-15T14:11:33.940Z,1.00
2019-02-15T14:14:00.324Z,0.93
2019-02-15T14:16:26.689Z,2.10
2019-02-15T14:18:53.625Z,6.83
2019-02-15T14:21:20.214Z,1.63
2019-02-15T14:23:46.575Z,5.13
2019-02-15T14:26:12.916Z,1.37
2019-02-15T14:28:39.250Z,5.10
2019-02-15T14:31:07.208Z,1.77
2019-02-15T14:33:33.525Z,1.70
2019-02-15T14:35:59.960Z,6.07
2019-02-15T14:38:26.551Z,1.00
2019-02-15T14:40:53.138Z,0.90
2019-02-15T14:43:19.546Z,1.00
2019-02-15T14:45:45.860Z,2.93
2019-02-15T14:48:12.453Z,4.30
2019-02-15T14:50:38.767Z,5.73
2019-02-15T14:53:05.128Z,4.40
2019-02-15T14:55:31.488Z,7.03
2019-02-15T14:57:58.248Z,6.77
2019-02-15T15:00:24.585Z,7.10
2019-02-15T15:02:50.915Z,4.50
2019-02-15T15:05:17.327Z,6.03
2019-02-15T15:07:43.993Z,5.03
2019-02-15T15:10:10.955Z,2.23
2019-02-15T15:12:37.883Z,4.00
2019-02-15T15:15:11.730Z,1.37
2019-02-15T15:17:38.639Z,11.73
2019-02-15T15:20:08.818Z,9.33
2019-02-15T15:22:35.152Z,2.73
2019-02-15T15:25:01.546Z,5.50
2019-02-15T15:27:28.105Z,3.80
2019-02-15T15:29:54.722Z,4.13
2019-02-15T15:32:21.283Z,5.20
2019-02-15T15:34:47.632Z,6.50
2019-02-15T15:37:16.441Z,3.57
2019-02-15T15:39:42.232Z,5.30
2019-02-15T15:42:08.543Z,5.40
2019-02-15T15:44:35.131Z,7.07
2019-02-15T15:47:01.489Z,2.30
2019-02-15T15:49:27.949Z,5.33
2019-02-15T15:51:54.331Z,3.70
2019-02-15T15:54:21.010Z,3.10
2019-02-15T15:56:47.356Z,10.33
2019-02-15T15:59:13.824Z,3.80
2019-02-15T16:01:40.231Z,3.37
2019-02-15T16:04:06.633Z,6.10
2019-02-15T16:06:32.971Z,2.67
2019-02-15T16:08:59.618Z,4.43
2019-02-15T16:11:26.810Z,5.80
2019-02-15T16:13:53.438Z,3.17
2019-02-15T16:16:19.766Z,4.00
2019-02-15T16:18:46.344Z,5.17
2019-02-15T16:21:12.691Z,13.30
2019-02-15T16:23:38.999Z,5.33
2019-02-15T16:26:05.402Z,10.93
2019-02-15T16:28:31.945Z,4.77
2019-02-15T16:30:58.285Z,3.90
2019-02-15T16:33:25.982Z,3.33
2019-02-15T16:35:52.328Z,4.73
2019-02-15T16:38:18.642Z,6.60
2019-02-15T16:40:45.252Z,8.77
2019-02-15T16:43:11.803Z,6.50
2019-02-15T16:45:38.161Z,2.83
2019-02-15T16:48:04.779Z,2.97
2019-02-15T16:50:31.370Z,4.30
2019-02-15T16:52:57.699Z,7.30
2019-02-15T16:55:24.342Z,11.63
2019-02-15T16:57:50.974Z,8.33
2019-02-15T17:00:17.526Z,3.80
2019-02-15T17:02:43.840Z,3.20
2019-02-15T17:05:11.801Z,4.00
2019-02-15T17:07:38.132Z,8.33
2019-02-15T17:10:08.797Z,5.57
2019-02-15T17:12:35.343Z,3.40
2019-02-15T17:15:02.014Z,3.83
2019-02-15T17:17:29.828Z,5.27
2019-02-15T17:19:56.532Z,9.63
2019-02-15T17:22:22.863Z,7.50
2019-02-15T17:24:49.197Z,4.47
2019-02-15T17:27:15.510Z,10.93
2019-02-15T17:29:42.141Z,10.63
2019-02-15T17:32:08.435Z,13.33
2019-02-15T17:34:35.056Z,6.80
2019-02-15T17:37:01.819Z,6.53
2019-02-15T17:39:28.319Z,6.63
2019-02-15T17:41:55.741Z,3.87
2019-02-15T17:44:22.312Z,9.17
2019-02-15T17:46:48.667Z,5.50
2019-02-15T17:49:15.226Z,9.17
2019-02-15T17:51:41.587Z,10.23
2019-02-15T17:54:08.145Z,9.43
2019-02-15T17:56:34.513Z,9.50
2019-02-15T17:59:00.824Z,25.07
2019-02-15T18:01:27.181Z,47.63
2019-02-15T18:03:53.492Z,46.53
2019-02-15T18:06:19.852Z,45.63
2019-02-15T18:08:46.162Z,27.27
2019-02-15T18:11:12.520Z,22.93
2019-02-15T18:13:40.233Z,19.10
2019-02-15T18:16:06.813Z,15.87
2019-02-15T18:18:33.169Z,25.63
2019-02-15T18:20:59.783Z,48.43
2019-02-15T18:23:26.458Z,31.30
2019-02-15T18:25:53.060Z,32.60
2019-02-15T18:28:19.386Z,19.60
2019-02-15T18:30:45.956Z,17.50
2019-02-15T18:33:12.292Z,17.00
2019-02-15T18:35:38.881Z,15.40
2019-02-15T18:38:05.215Z,18.77
2019-02-15T18:40:31.847Z,18.23
2019-02-15T18:42:58.281Z,19.60
2019-02-15T18:45:32.257Z,25.30
2019-02-15T18:47:58.607Z,24.50
2019-02-15T18:50:25.231Z,26.37
2019-02-15T18:52:51.518Z,22.67
2019-02-15T18:55:18.114Z,15.70
2019-02-15T18:57:45.521Z,20.27
2019-02-15T19:00:16.394Z,21.47
2019-02-15T19:02:46.254Z,19.03
2019-02-15T19:05:12.759Z,13.23
2019-02-15T19:07:39.636Z,28.27
2019-02-15T19:10:12.935Z,16.50
2019-02-15T19:12:39.577Z,15.87
2019-02-15T19:15:10.871Z,17.07
2019-02-15T19:17:37.224Z,20.30
2019-02-15T19:20:08.455Z,19.10
2019-02-15T19:22:34.863Z,16.70
2019-02-15T19:25:01.200Z,11.20
2019-02-15T19:27:29.091Z,20.70
2019-02-15T19:29:55.436Z,19.53
2019-02-15T19:32:22.231Z,15.57
2019-02-15T19:34:48.803Z,17.93
2019-02-15T19:37:15.447Z,18.47
2019-02-15T19:39:41.769Z,16.03
2019-02-15T19:42:10.506Z,16.97
2019-02-15T19:44:38.072Z,25.47
2019-02-15T19:47:04.755Z,18.20
2019-02-15T19:49:38.639Z,17.83
2019-02-15T19:51:59.611Z,18.07
2019-02-15T19:54:25.955Z,18.77
2019-02-15T19:56:52.341Z,14.23
2019-02-15T19:59:18.978Z,30.17
2019-02-15T20:01:45.558Z,15.93
2019-02-15T20:04:12.183Z,14.57
2019-02-15T20:06:38.746Z,15.40
2019-02-15T20:09:05.335Z,18.60
2019-02-15T20:11:33.570Z,11.73
2019-02-15T20:14:00.199Z,11.70
2019-02-15T20:16:26.761Z,13.70
2019-02-15T20:18:53.107Z,12.40
2019-02-15T20:21:19.680Z,31.47
2019-02-15T20:23:46.335Z,14.53
2019-02-15T20:26:13.650Z,13.07
2019-02-15T20:28:40.042Z,21.90
2019-02-15T20:31:06.390Z,21.57
2019-02-15T20:33:32.993Z,14.73
2019-02-15T20:35:59.523Z,17.17
2019-02-15T20:38:26.201Z,16.13
2019-02-15T20:40:52.546Z,16.50
2019-02-15T20:43:19.872Z,20.70
2019-02-15T20:45:46.197Z,13.60
2019-02-15T20:48:13.255Z,18.63
2019-02-15T20:50:40.586Z,19.07
2019-02-15T20:53:07.213Z,15.83
2019-02-15T20:55:33.556Z,18.60
2019-02-15T20:57:59.944Z,13.53
2019-02-15T21:00:29.882Z,18.87
2019-02-15T21:02:56.455Z,15.77
2019-02-15T21:05:23.018Z,14.43
2019-02-15T21:07:49.366Z,12.27
2019-02-15T21:10:16.122Z,14.33
2019-02-15T21:12:42.801Z,17.43
2019-02-15T21:15:11.580Z,14.10
2019-02-15T21:17:38.387Z,14.97
2019-02-15T21:20:12.873Z,15.57
2019-02-15T21:22:39.652Z,16.43
2019-02-15T21:25:09.909Z,18.87
2019-02-15T21:27:36.956Z,12.17
2019-02-15T21:30:08.620Z,18.50
2019-02-15T21:32:35.290Z,21.07
2019-02-15T21:35:01.646Z,17.90
2019-02-15T21:37:28.275Z,17.27
2019-02-15T21:39:54.591Z,16.27
2019-02-15T21:42:20.946Z,12.73
2019-02-15T21:44:47.274Z,17.87
2019-02-15T21:47:13.605Z,25.20
2019-02-15T21:49:40.233Z,41.73
2019-02-15T21:52:06.801Z,16.53
2019-02-15T21:54:33.110Z,12.10
2019-02-15T21:56:59.507Z,14.00
2019-02-15T21:59:25.859Z,16.57
2019-02-15T22:01:52.302Z,16.83
2019-02-15T22:04:18.922Z,16.57
2019-02-15T22:06:45.262Z,13.37
2019-02-15T22:09:12.327Z,15.87
2019-02-15T22:11:38.867Z,14.07
2019-02-15T22:14:05.174Z,14.87
2019-02-15T22:16:32.816Z,10.40
2019-02-15T22:18:59.415Z,16.43
2019-02-15T22:21:26.096Z,14.93
2019-02-15T22:23:52.435Z,15.23
2019-02-15T22:26:18.762Z,13.97
2019-02-15T22:28:45.427Z,12.20
2019-02-15T22:31:12.104Z,23.30
2019-02-15T22:33:38.491Z,17.10
2019-02-15T22:36:04.955Z,16.50
2019-02-15T22:38:31.612Z,14.97
2019-02-15T22:41:10.147Z,14.97
2019-02-15T22:43:36.541Z,16.57
2019-02-15T22:46:03.564Z,16.20
2019-02-15T22:48:30.142Z,14.33
2019-02-15T22:50:56.725Z,13.20
2019-02-15T22:53:23.048Z,21.07
2019-02-15T22:55:49.662Z,14.90
2019-02-15T22:58:16.118Z,13.27
2019-02-15T23:00:49.451Z,16.03
2019-02-15T23:03:22.480Z,14.00
2019-02-15T23:05:50.074Z,15.37
2019-02-15T23:08:16.407Z,19.70
2019-02-15T23:10:42.735Z,12.60
2019-02-15T23:13:09.047Z,12.50
2019-02-15T23:15:35.640Z,18.63
2019-02-15T23:18:02.201Z,13.60
2019-02-15T23:20:28.659Z,13.70
2019-02-15T23:22:55.202Z,16.47
2019-02-15T23:25:21.524Z,18.13
2019-02-15T23:27:47.921Z,12.30
2019-02-15T23:30:14.478Z,15.23
2019-02-15T23:32:42.063Z,11.97
2019-02-15T23:35:08.395Z,16.70
2019-02-15T23:37:34.721Z,12.73
2019-02-15T23:40:01.287Z,13.03
2019-02-15T23:42:27.899Z,12.27
2019-02-15T23:44:54.203Z,10.20
2019-02-15T23:47:20.538Z,10.47
2019-02-15T23:49:47.047Z,12.33
2019-02-15T23:52:13.400Z,13.57
2019-02-15T23:54:39.982Z,11.30
2019-02-15T23:57:06.596Z,12.60
2019-02-15T23:59:33.195Z,11.23
